Terminal Aerodrome Forecast
Issued by NWS

Home | Current Version | Previous Version | Text Only | Print | Product List | Glossary On
Versions: 1 2 3 4 5 6 7 8 9 10 11 12 13 14 15 16 17 18 19 20 21 22 23 24 25 26 27 28 29 30 31 32 33 34
000
FTUS45 KBYZ 270520
TAFLVM
TAF
KLVM 270520Z 2706/2806 VRB05KT P6SM VCFG FEW009 SCT030 BKN050
      TEMPO 2708/2710 2SM BR BKN006 OVC020
     FM271000 VRB05KT 2SM BR BKN006 OVC020
      TEMPO 2710/2714 1/2SM FG VV002
     FM271700 VRB05KT P6SM SCT030
     FM280500 VRB05KT P6SM VCFG FEW002=

USA.gov is the U.S. government's official web portal to all federal, state and local government web resources and services.